createdAt,value
2022-09-14T00:00:34.915Z,8.27
2022-09-14T00:10:46.010Z,8.00
2022-09-14T00:20:48.991Z,6.78
2022-09-14T00:30:51.912Z,3.47
2022-09-14T00:41:01.395Z,4.82
2022-09-14T00:51:03.942Z,4.43
2022-09-14T01:01:08.290Z,4.28
2022-09-14T01:11:31.882Z,4.85
2022-09-14T01:21:38.450Z,3.67
2022-09-14T01:32:04.234Z,4.93
2022-09-14T01:42:07.425Z,4.72
2022-09-14T01:52:14.913Z,6.03
2022-09-14T02:02:23.220Z,4.40
2022-09-14T02:12:26.224Z,5.13
2022-09-14T02:22:30.402Z,4.13
2022-09-14T02:32:45.017Z,5.03
2022-09-14T02:42:53.268Z,4.47
2022-09-14T02:53:08.444Z,6.13
2022-09-14T03:03:13.321Z,4.22
2022-09-14T03:13:15.974Z,6.15
2022-09-14T03:23:18.924Z,4.38
2022-09-14T03:33:21.346Z,6.43
2022-09-14T03:43:24.310Z,4.90
2022-09-14T03:53:26.890Z,6.53
2022-09-14T04:03:29.853Z,6.47
2022-09-14T04:13:32.940Z,5.60
2022-09-14T04:23:46.247Z,6.22
2022-09-14T04:33:57.349Z,7.95
2022-09-14T04:44:00.908Z,6.00
2022-09-14T04:54:05.832Z,5.78
2022-09-14T05:04:08.917Z,6.68
2022-09-14T05:14:14.805Z,7.90
2022-09-14T05:24:19.129Z,6.22
2022-09-14T05:34:21.868Z,6.05
2022-09-14T05:44:25.011Z,5.63
2022-09-14T05:54:29.446Z,8.63
2022-09-14T06:04:32.916Z,4.20
2022-09-14T06:14:36.127Z,5.40
2022-09-14T06:24:38.872Z,5.10
2022-09-14T06:34:41.883Z,3.63
2022-09-14T06:44:44.901Z,5.10
2022-09-14T06:54:47.319Z,4.82
2022-09-14T07:04:50.009Z,4.00
2022-09-14T07:14:53.697Z,4.95
2022-09-14T07:25:29.644Z,4.45
2022-09-14T07:35:33.399Z,7.20
2022-09-14T07:45:37.107Z,5.40
2022-09-14T07:55:41.079Z,5.82
2022-09-14T08:05:43.900Z,4.93
2022-09-14T08:15:46.929Z,8.02
2022-09-14T08:25:49.984Z,6.78
2022-09-14T08:35:59.829Z,6.85
2022-09-14T08:46:06.451Z,5.38
2022-09-14T08:56:19.043Z,5.00
2022-09-14T09:06:34.512Z,5.85
2022-09-14T09:16:38.048Z,11.25
2022-09-14T09:26:40.865Z,7.97
2022-09-14T09:36:46.973Z,6.93
2022-09-14T09:47:04.179Z,5.15
2022-09-14T09:57:31.211Z,6.25
2022-09-14T10:07:37.091Z,7.40
2022-09-14T10:17:39.904Z,8.23
2022-09-14T10:27:55.701Z,4.20
2022-09-14T10:38:18.066Z,4.07
2022-09-14T10:49:02.533Z,5.15
2022-09-14T10:59:44.010Z,6.70
2022-09-14T11:10:16.599Z,6.10
2022-09-14T11:20:22.802Z,9.43
2022-09-14T11:30:38.223Z,9.60
2022-09-14T11:40:49.296Z,13.85
2022-09-14T11:50:57.405Z,10.05
2022-09-14T12:01:01.879Z,8.68
2022-09-14T12:11:10.385Z,8.82
2022-09-14T12:21:24.694Z,10.45
2022-09-14T12:31:36.397Z,9.50
2022-09-14T12:41:41.841Z,10.10
2022-09-14T12:51:49.974Z,17.65
2022-09-14T13:02:23.961Z,8.25
2022-09-14T13:12:41.556Z,9.90
2022-09-14T13:22:44.076Z,10.50
2022-09-14T13:32:49.586Z,8.40
2022-09-14T13:42:52.495Z,10.45
2022-09-14T13:53:02.415Z,12.85
2022-09-14T14:03:06.554Z,10.05
2022-09-14T14:13:08.907Z,9.82
2022-09-14T14:23:11.874Z,10.25
2022-09-14T14:33:19.378Z,12.25
2022-09-14T14:43:25.401Z,9.85
2022-09-14T14:53:28.020Z,11.38
2022-09-14T15:03:31.030Z,12.50
2022-09-14T15:13:33.866Z,10.52
2022-09-14T15:23:36.942Z,12.48
2022-09-14T15:33:39.937Z,11.98
2022-09-14T15:43:44.019Z,12.73
2022-09-14T15:53:47.985Z,12.68
2022-09-14T16:03:55.718Z,14.25
2022-09-14T16:13:58.949Z,13.40
2022-09-14T16:24:03.542Z,11.75
2022-09-14T16:34:17.933Z,15.88
2022-09-14T16:44:23.568Z,14.40
2022-09-14T16:54:26.150Z,12.70
2022-09-14T17:04:28.919Z,12.35
2022-09-14T17:14:33.853Z,11.32
2022-09-14T17:24:36.875Z,12.95
2022-09-14T17:34:40.033Z,13.07
2022-09-14T17:44:43.834Z,15.63
2022-09-14T17:54:47.080Z,15.38
2022-09-14T18:04:49.858Z,14.88
2022-09-14T18:14:53.090Z,12.90
2022-09-14T18:24:56.135Z,14.80
2022-09-14T18:34:59.135Z,15.80
2022-09-14T18:45:02.177Z,19.00
2022-09-14T18:55:07.897Z,16.95
2022-09-14T19:05:12.602Z,15.93
2022-09-14T19:15:16.405Z,15.18
2022-09-14T19:25:20.368Z,20.92
2022-09-14T19:35:24.081Z,17.08
2022-09-14T19:55:31.374Z,18.30
2022-09-14T20:05:34.328Z,18.75
2022-09-14T20:15:36.924Z,18.75
2022-09-14T20:25:39.919Z,13.95
2022-09-14T20:35:42.947Z,14.18
2022-09-14T20:45:45.877Z,17.33
2022-09-14T20:55:48.932Z,13.93
2022-09-14T21:05:53.457Z,15.00
2022-09-14T21:15:56.947Z,15.63
2022-09-14T21:25:59.949Z,14.10
2022-09-14T21:36:07.589Z,15.07
2022-09-14T21:46:11.042Z,14.07
2022-09-14T21:56:14.327Z,13.00
2022-09-14T22:06:17.626Z,14.65
2022-09-14T22:16:21.015Z,13.48
2022-09-14T22:26:25.405Z,12.23
2022-09-14T22:36:29.214Z,15.18
2022-09-14T22:56:37.573Z,15.57
2022-09-14T23:06:46.025Z,14.77
2022-09-14T23:16:48.902Z,15.25
2022-09-14T23:26:51.905Z,13.55
2022-09-14T23:36:54.948Z,14.48
2022-09-14T23:46:57.937Z,15.73
2022-09-14T23:57:00.867Z,16.90
